Pagrindinis puslapis
METAR-TAF:

METAR-TAF

Oro uostai :

Karalienės Alijos tarptautinis oro uostas

Amanas-Queen Alia, Jordanija

platuma: 31-40N, ilguma: 035-58E, Aukštis: 721 m

Dabartinis oras

Ataskaita buvo paskelbta 1 valandą ir 31 minutes, ne 22:00 UTC
Vėjas 5 kt iš Šiaurės
Temperatūra 21°C
Drėgmė 49%
Slėgis 1018 hPa
Matomumas: 6000 m

METAR: OJAI 242200Z 01005KT 6000 NSC 21/10 Q1018 NOSIG

Laikas: 02:31 (23:31 UTC)

Prognozė

Ataskaita buvo paskelbta 6 valandos ir 31 minutes, ne 17:00 UTC
Prognozė galioja nuo 24 metu 18 UTC su 25 metu 24 UTC
Vėjas 10 kt iš Vakarų/Šiaurės Vakarų
Matomumas: 5000 m
migla
Tikimybė 30%
nuo 25 metu 03 UTC su 25 metu 06 UTC
Matomumas: 3000 m
migla
Laikinai
nuo 25 metu 12 UTC su 25 metu 17 UTC
Vėjas 16 kt iš Vakarų/Šiaurės Vakarų

TAF: OJAI 241700Z 2418/2524 29010KT 5000 HZ NSC PROB30 2503/2506 3000 HZ TEMPO 2512/2517 30016KT

Orai ataskaitas ir orų prognozės (METAR, TAF).

turimą stotys yra geltonos ir raudonos taškus žemėlapyje.

Perkelti pele per norėdami pamatyti stoties vardą.

Tada spustelėkite, norėdami matyti oro stebėjimo ir prognozės.

Norėdami pakeisti žemėlapį: spustelėkite ant žalios mygtukų su juodo kryžiaus žemyn,; žalią mygtuką su brūkšneliu, jei norite nutolinti; arba žalių rodyklių gretimoms žemėlapius.


METAR-TAF: